createdAt,value
2019-03-13T00:01:09.051Z,48.20
2019-03-13T00:06:11.235Z,48.80
2019-03-13T00:11:12.644Z,49.20
2019-03-13T00:16:14.447Z,50.30
2019-03-13T00:27:22.927Z,54.60
2019-03-13T00:32:24.014Z,61.60
2019-03-13T00:37:25.098Z,99.90
2019-03-13T00:42:26.180Z,99.90
2019-03-13T00:47:27.246Z,99.90
2019-03-13T00:52:28.317Z,99.90
2019-03-13T00:57:29.413Z,99.90
2019-03-13T01:08:37.788Z,99.90
2019-03-13T01:13:38.897Z,99.90
2019-03-13T01:18:39.991Z,99.90
2019-03-13T01:23:41.199Z,99.90
2019-03-13T01:28:42.290Z,99.90
2019-03-13T01:33:43.689Z,99.90
2019-03-13T01:38:44.904Z,99.90
2019-03-13T01:43:45.997Z,99.90
2019-03-13T01:48:47.087Z,99.90
2019-03-13T01:53:48.175Z,99.90
2019-03-13T01:58:49.281Z,99.90
2019-03-13T02:03:50.384Z,99.90
2019-03-13T02:08:51.501Z,99.90
2019-03-13T02:13:52.736Z,99.90
2019-03-13T02:18:53.833Z,99.90
2019-03-13T02:23:54.925Z,99.90
2019-03-13T02:28:56.016Z,99.90
2019-03-13T02:33:57.126Z,99.90
2019-03-13T02:38:58.229Z,99.90
2019-03-13T02:43:59.315Z,99.90
2019-03-13T02:49:00.411Z,99.90
2019-03-13T02:54:01.500Z,99.90
2019-03-13T02:59:02.703Z,99.90
2019-03-13T03:04:05.234Z,99.90
2019-03-13T03:09:07.223Z,99.90
2019-03-13T03:14:08.348Z,99.90
2019-03-13T03:19:09.551Z,99.90
2019-03-13T03:24:10.860Z,99.90
2019-03-13T03:29:11.971Z,99.90
2019-03-13T03:34:13.158Z,99.90
2019-03-13T03:39:14.255Z,99.90
2019-03-13T03:44:15.441Z,99.90
2019-03-13T03:49:16.593Z,99.90
2019-03-13T03:54:17.771Z,99.90
2019-03-13T03:59:18.964Z,99.90
2019-03-13T04:04:20.057Z,99.90
2019-03-13T04:09:21.152Z,99.90
2019-03-13T04:14:22.265Z,99.90
2019-03-13T04:19:23.472Z,99.90
2019-03-13T04:24:24.594Z,99.90
2019-03-13T04:29:25.682Z,99.90
2019-03-13T04:34:26.790Z,99.90
2019-03-13T04:39:27.917Z,99.90
2019-03-13T04:44:29.009Z,99.90
2019-03-13T04:49:30.109Z,99.90
2019-03-13T04:54:31.191Z,99.90
2019-03-13T04:59:32.291Z,99.90
2019-03-13T05:04:33.383Z,99.90
2019-03-13T05:09:36.583Z,99.90
2019-03-13T05:14:37.709Z,99.90
2019-03-13T05:19:38.801Z,99.90
2019-03-13T05:24:39.884Z,99.90
2019-03-13T05:29:40.987Z,99.90
2019-03-13T05:34:42.088Z,99.90
2019-03-13T05:39:43.197Z,99.90
2019-03-13T05:44:44.290Z,99.90
2019-03-13T05:49:45.419Z,99.90
2019-03-13T05:54:46.524Z,99.90
2019-03-13T05:59:47.616Z,99.90
2019-03-13T06:04:48.702Z,99.90
2019-03-13T06:09:49.809Z,99.90
2019-03-13T06:14:50.916Z,99.90
2019-03-13T06:19:52.017Z,99.90
2019-03-13T06:24:53.118Z,99.90
2019-03-13T06:29:54.217Z,99.90
2019-03-13T06:34:55.325Z,99.90
2019-03-13T06:39:56.645Z,99.90
2019-03-13T06:44:57.734Z,99.90
2019-03-13T06:49:58.851Z,99.90
2019-03-13T06:54:59.943Z,99.90
2019-03-13T07:00:05.784Z,99.90
2019-03-13T07:05:26.895Z,99.90
2019-03-13T07:10:29.907Z,99.90
2019-03-13T07:15:35.757Z,99.90
2019-03-13T07:20:44.061Z,99.90
2019-03-13T07:26:02.110Z,99.90
2019-03-13T07:31:11.083Z,99.90
2019-03-13T07:36:26.437Z,99.90
2019-03-13T07:41:29.568Z,99.90
2019-03-13T07:46:47.857Z,99.90
2019-03-13T07:51:50.858Z,99.90
2019-03-13T07:56:53.871Z,99.90
2019-03-13T08:02:02.751Z,99.90
2019-03-13T08:07:11.624Z,99.90
2019-03-13T08:12:26.778Z,99.90
2019-03-13T08:17:29.796Z,99.90
2019-03-13T08:22:44.834Z,99.90
2019-03-13T08:27:50.588Z,99.90
2019-03-13T08:33:02.687Z,99.90
2019-03-13T08:38:05.692Z,99.90
2019-03-13T08:43:11.735Z,99.90
2019-03-13T08:48:30.103Z,97.00
2019-03-13T08:53:36.139Z,95.40
2019-03-13T08:58:42.168Z,99.90
2019-03-13T09:03:51.170Z,99.90
2019-03-13T09:08:56.932Z,99.90
2019-03-13T09:14:18.106Z,99.90
2019-03-13T09:19:27.093Z,99.90
2019-03-13T09:24:33.067Z,99.90
2019-03-13T09:29:38.943Z,99.90
2019-03-13T09:34:42.164Z,99.90
2019-03-13T09:39:45.183Z,99.90
2019-03-13T09:44:57.431Z,99.60
2019-03-13T09:50:15.536Z,92.70
2019-03-13T09:55:33.675Z,84.70
2019-03-13T10:00:36.674Z,73.20
2019-03-13T10:05:42.453Z,62.00
2019-03-13T10:10:45.445Z,58.50
2019-03-13T10:15:48.476Z,59.80
2019-03-13T10:20:54.679Z,59.70
2019-03-13T10:26:03.461Z,62.00
2019-03-13T10:31:12.480Z,64.20
2019-03-13T10:36:24.590Z,57.00
2019-03-13T10:41:39.439Z,51.00
2019-03-13T10:46:48.228Z,52.90
2019-03-13T10:51:51.326Z,54.70
2019-03-13T10:57:00.083Z,54.80
2019-03-13T11:02:03.198Z,52.00
2019-03-13T11:07:18.471Z,51.00
2019-03-13T11:12:24.248Z,51.90
2019-03-13T11:17:30.261Z,49.60
2019-03-13T11:22:33.344Z,50.00
2019-03-13T11:27:39.071Z,50.00
2019-03-13T11:32:42.077Z,49.80
2019-03-13T11:37:48.103Z,51.90
2019-03-13T11:42:57.099Z,53.50
2019-03-13T11:48:16.948Z,56.70
2019-03-13T11:53:19.943Z,58.20
2019-03-13T11:58:41.319Z,62.40
2019-03-13T12:03:44.519Z,70.80
2019-03-13T12:08:47.531Z,79.40
2019-03-13T12:13:59.480Z,78.40
2019-03-13T12:19:19.447Z,78.80
2019-03-13T12:24:25.169Z,72.60
2019-03-13T12:29:31.368Z,72.30
2019-03-13T12:34:43.588Z,71.00
2019-03-13T12:39:52.602Z,68.70
2019-03-13T12:45:12.144Z,65.20
2019-03-13T12:50:15.365Z,64.20
2019-03-13T12:55:18.371Z,97.60
2019-03-13T13:00:24.140Z,85.00
2019-03-13T13:05:43.680Z,59.20
2019-03-13T13:10:49.463Z,51.80
2019-03-13T13:15:58.351Z,50.00
2019-03-13T13:20:59.456Z,46.70
2019-03-13T13:26:00.640Z,40.70
2019-03-13T13:31:01.736Z,38.30
2019-03-13T13:36:03.873Z,46.00
2019-03-13T13:41:05.096Z,55.50
2019-03-13T13:46:12.918Z,87.40
2019-03-13T13:51:14.150Z,93.50
2019-03-13T13:56:15.367Z,71.60
2019-03-13T14:01:16.560Z,54.40
2019-03-13T14:06:17.711Z,47.30
2019-03-13T14:11:18.946Z,54.60
2019-03-13T14:16:20.196Z,55.10
2019-03-13T14:21:21.386Z,54.10
2019-03-13T14:26:22.493Z,50.30
2019-03-13T14:31:23.591Z,57.20
2019-03-13T14:36:24.702Z,61.70
2019-03-13T14:41:26.707Z,68.40
2019-03-13T14:46:28.037Z,85.80
2019-03-13T14:51:29.131Z,96.60
2019-03-13T14:56:30.261Z,97.30
2019-03-13T15:01:31.461Z,81.00
2019-03-13T15:06:32.559Z,72.10
2019-03-13T15:11:33.667Z,64.50
2019-03-13T15:16:34.798Z,58.20
2019-03-13T15:21:35.904Z,65.70
2019-03-13T15:26:37.921Z,55.20
2019-03-13T15:31:39.040Z,55.30
2019-03-13T15:36:40.164Z,59.70
2019-03-13T15:41:41.290Z,64.20
2019-03-13T15:46:42.394Z,64.70
2019-03-13T15:51:43.512Z,70.80
2019-03-13T15:56:44.616Z,76.60
2019-03-13T16:01:45.754Z,78.90
2019-03-13T16:06:46.871Z,81.60
2019-03-13T16:11:47.994Z,88.00
2019-03-13T16:16:49.240Z,89.30
2019-03-13T16:21:50.450Z,89.90
2019-03-13T16:26:51.555Z,92.70
2019-03-13T16:31:52.653Z,94.30
2019-03-13T16:36:53.759Z,94.00
2019-03-13T16:41:54.851Z,92.80
2019-03-13T16:46:56.062Z,91.10
2019-03-13T16:51:57.164Z,91.10
2019-03-13T16:56:58.277Z,89.90
2019-03-13T17:01:59.490Z,91.00
2019-03-13T17:07:00.711Z,91.40
2019-03-13T17:12:01.808Z,92.70
2019-03-13T17:17:03.124Z,95.40
2019-03-13T17:22:04.447Z,98.80
2019-03-13T17:27:05.636Z,99.90
2019-03-13T17:32:06.740Z,99.90
2019-03-13T17:37:07.847Z,99.90
2019-03-13T17:42:08.967Z,99.90
2019-03-13T17:47:10.379Z,99.90
2019-03-13T17:52:11.477Z,99.90
2019-03-13T17:57:12.587Z,99.90
2019-03-13T18:02:13.805Z,99.90
2019-03-13T18:07:14.883Z,99.90
2019-03-13T18:12:15.984Z,99.90
2019-03-13T18:17:17.280Z,99.90
2019-03-13T18:22:18.391Z,99.90
2019-03-13T18:27:19.520Z,99.90
2019-03-13T18:32:20.730Z,99.90
2019-03-13T18:37:21.847Z,99.90
2019-03-13T18:42:23.046Z,99.90
2019-03-13T18:47:24.167Z,99.90
2019-03-13T18:52:25.551Z,99.90
2019-03-13T18:57:26.762Z,99.90
2019-03-13T19:02:28.028Z,99.90
2019-03-13T19:07:29.258Z,99.90
2019-03-13T19:12:30.410Z,99.90
2019-03-13T19:22:28.368Z,99.90
2019-03-13T19:27:29.595Z,99.90
2019-03-13T19:32:30.752Z,99.90
2019-03-13T19:37:31.981Z,99.90
2019-03-13T19:42:33.205Z,99.90
2019-03-13T19:47:34.341Z,99.90
2019-03-13T19:52:35.428Z,99.90
2019-03-13T19:57:36.618Z,99.90
2019-03-13T20:02:37.856Z,99.90
2019-03-13T20:07:39.319Z,99.90
2019-03-13T20:12:40.575Z,99.90
2019-03-13T20:17:41.963Z,99.90
2019-03-13T20:22:43.407Z,99.90
2019-03-13T20:27:44.636Z,99.90
2019-03-13T20:32:46.097Z,99.90
2019-03-13T20:37:47.382Z,99.90
2019-03-13T20:42:48.600Z,99.90
2019-03-13T20:47:50.121Z,99.90
2019-03-13T20:52:51.661Z,99.90
2019-03-13T20:57:52.973Z,99.90
2019-03-13T21:02:55.102Z,99.90
2019-03-13T21:07:56.210Z,99.90
2019-03-13T21:12:57.329Z,99.90
2019-03-13T21:17:58.768Z,99.90
2019-03-13T21:22:59.910Z,99.90
2019-03-13T21:28:01.027Z,99.90
2019-03-13T21:33:02.148Z,99.90
2019-03-13T21:38:03.365Z,99.90
2019-03-13T21:43:04.856Z,99.90
2019-03-13T21:48:06.104Z,99.90
2019-03-13T21:53:07.407Z,99.90
2019-03-13T21:58:08.498Z,99.90
2019-03-13T22:03:09.604Z,99.90
2019-03-13T22:08:10.726Z,99.90
2019-03-13T22:13:11.832Z,99.90
2019-03-13T22:18:12.953Z,99.90
2019-03-13T22:23:14.062Z,99.90
2019-03-13T22:28:15.155Z,99.90
2019-03-13T22:33:16.260Z,99.90
2019-03-13T22:38:17.367Z,99.90
2019-03-13T22:43:18.470Z,99.90
2019-03-13T22:48:19.681Z,99.90
2019-03-13T22:53:20.887Z,99.90
2019-03-13T22:58:24.479Z,99.90
2019-03-13T23:03:26.894Z,99.90
2019-03-13T23:08:30.867Z,99.90
2019-03-13T23:13:30.997Z,99.90
2019-03-13T23:18:32.217Z,99.90
2019-03-13T23:23:33.339Z,99.90
2019-03-13T23:28:34.440Z,99.90
2019-03-13T23:33:35.544Z,99.90
2019-03-13T23:38:36.647Z,99.90
2019-03-13T23:43:37.744Z,99.90
2019-03-13T23:48:38.826Z,99.90
2019-03-13T23:53:39.920Z,99.90
2019-03-13T23:58:41.008Z,99.90
